Time;durP1;ratioP1;P1;durP2;ratioP2;P2;SDS_P1;SDS_P2;PMS_P1;PMS_P2;Temp;Humidity;BMP_temperature;BMP_pressure;BME280_temperature;BME280_humidity;BME280_pressure;Samples;Min_cycle;Max_cycle;Signal;HPM_P1;HPM_P2
2024/02/29 00:00:50;;;;;;;17.77;10.35;;;;;;;4.21;100.00;68851.91;5069688;28;20105;-51
2024/02/29 00:03:18;;;;;;;15.75;9.55;;;;;;;4.21;100.00;68851.91;5072071;28;20048;-48
2024/02/29 00:05:47;;;;;;;15.90;9.60;;;;;;;4.17;100.00;68847.25;5071949;28;20143;-49
2024/02/29 00:08:15;;;;;;;15.63;9.68;;;;;;;4.17;100.00;68849.84;5071296;28;20075;-51
2024/02/29 00:10:43;;;;;;;15.02;9.30;;;;;;;4.16;100.00;68846.09;5072293;28;20059;-48
2024/02/29 00:13:13;;;;;;;16.02;9.10;;;;;;;4.14;100.00;68845.75;5070836;28;20048;-48
2024/02/29 00:15:41;;;;;;;14.27;8.93;;;;;;;4.12;100.00;68840.84;5071684;28;20523;-49
2024/02/29 00:18:12;;;;;;;13.52;8.70;;;;;;;4.11;100.00;68842.84;5075571;28;20044;-50
2024/02/29 00:20:41;;;;;;;13.95;8.75;;;;;;;4.06;100.00;68834.47;5074237;28;20098;-51
2024/02/29 00:23:09;;;;;;;15.10;8.38;;;;;;;4.03;100.00;68834.16;5071719;28;20054;-52
2024/02/29 00:25:38;;;;;;;14.98;8.25;;;;;;;4.01;100.00;68826.66;5072318;28;20560;-51
2024/02/29 00:28:06;;;;;;;14.98;8.77;;;;;;;3.99;100.00;68826.91;5070542;28;20094;-52
2024/02/29 00:30:36;;;;;;;15.95;7.82;;;;;;;4.03;100.00;68831.00;5071530;28;20052;-50
2024/02/29 00:33:04;;;;;;;12.73;8.18;;;;;;;3.97;100.00;68822.03;5071928;28;20044;-50
2024/02/29 00:35:32;;;;;;;17.13;8.40;;;;;;;3.96;100.00;68823.44;5073534;28;20044;-50
2024/02/29 00:38:00;;;;;;;14.48;7.90;;;;;;;4.00;100.00;68828.09;5075132;28;20047;-51
2024/02/29 00:40:29;;;;;;;15.18;7.70;;;;;;;3.99;100.00;68826.34;5074615;28;20051;-49
2024/02/29 00:42:59;;;;;;;13.10;7.72;;;;;;;3.98;100.00;68828.34;5069796;28;20079;-49
2024/02/29 00:45:27;;;;;;;14.07;7.75;;;;;;;3.97;100.00;68824.59;5071934;28;20116;-49
2024/02/29 00:47:57;;;;;;;13.93;7.72;;;;;;;3.98;100.00;68825.19;5071248;28;20499;-48
2024/02/29 00:50:25;;;;;;;14.50;7.75;;;;;;;4.01;100.00;68833.84;5072508;28;20434;-47
2024/02/29 00:52:53;;;;;;;16.20;8.02;;;;;;;4.03;100.00;68828.41;5070955;28;20049;-49
2024/02/29 00:55:21;;;;;;;13.95;7.63;;;;;;;4.01;100.00;68826.66;5072023;28;20044;-49
2024/02/29 00:57:51;;;;;;;14.43;8.43;;;;;;;4.06;100.00;68837.06;5073018;28;20049;-49
2024/02/29 01:00:20;;;;;;;14.50;7.88;;;;;;;4.09;100.00;68840.53;5070767;28;20535;-51
2024/02/29 01:02:48;;;;;;;14.48;8.75;;;;;;;4.10;100.00;68841.13;5072918;28;20043;-50
2024/02/29 01:05:17;;;;;;;14.75;7.50;;;;;;;4.13;100.00;68847.19;5073945;28;20047;-53
2024/02/29 01:07:46;;;;;;;14.40;8.07;;;;;;;4.13;100.00;68845.19;5070496;28;20068;-52
2024/02/29 01:10:14;;;;;;;13.73;7.60;;;;;;;4.14;100.00;68848.91;5051368;28;20497;-52
2024/02/29 01:12:42;;;;;;;12.82;7.25;;;;;;;4.18;100.00;68853.00;5061046;28;20044;-51
2024/02/29 01:15:14;;;;;;;13.90;7.65;;;;;;;4.19;100.00;68846.97;5074271;28;20056;-50
2024/02/29 01:17:43;;;;;;;13.90;7.55;;;;;;;4.20;100.00;68850.16;5073362;28;20056;-51
2024/02/29 01:20:11;;;;;;;14.00;7.38;;;;;;;4.25;100.00;68861.13;5071198;28;20127;-51
2024/02/29 01:22:41;;;;;;;14.57;7.45;;;;;;;4.25;100.00;68855.38;5069031;28;20056;-52
2024/02/29 01:25:09;;;;;;;12.82;7.70;;;;;;;4.23;100.00;68856.22;5071804;28;20040;-50
2024/02/29 01:27:38;;;;;;;15.38;7.53;;;;;;;4.28;100.00;68858.84;5074607;28;20388;-51
2024/02/29 01:30:07;;;;;;;13.35;7.82;;;;;;;4.28;100.00;68856.28;5074585;28;20522;-48
2024/02/29 01:32:35;;;;;;;14.27;7.45;;;;;;;4.30;100.00;68861.19;5071296;28;20048;-49
2024/02/29 01:35:05;;;;;;;13.23;7.60;;;;;;;4.32;100.00;68866.66;5070764;28;20048;-52
2024/02/29 01:37:34;;;;;;;13.07;7.25;;;;;;;4.38;100.00;68870.47;5074263;28;20502;-48
2024/02/29 01:40:04;;;;;;;13.85;7.28;;;;;;;4.43;100.00;68878.28;5074282;28;20420;-48
2024/02/29 01:42:35;;;;;;;15.55;7.97;;;;;;;4.44;100.00;68874.28;5074225;28;20068;-61
2024/02/29 01:45:05;;;;;;;17.35;8.85;;;;;;;4.47;100.00;68883.50;5074917;28;20045;-61
2024/02/29 01:47:33;;;;;;;19.23;8.43;;;;;;;4.50;100.00;68883.81;5073866;28;20048;-60
2024/02/29 01:50:04;;;;;;;16.67;8.68;;;;;;;4.51;100.00;68885.56;5072742;28;20072;-60
2024/02/29 01:52:34;;;;;;;15.70;8.05;;;;;;;4.55;100.00;68887.03;5072639;28;20044;-61
2024/02/29 01:55:03;;;;;;;14.70;8.27;;;;;;;4.55;100.00;68890.22;5072447;28;20132;-60
2024/02/29 01:57:32;;;;;;;14.65;8.32;;;;;;;4.57;100.00;68891.97;5072322;28;20063;-60
2024/02/29 02:00:02;;;;;;;14.32;7.93;;;;;;;4.61;100.00;68898.59;5072069;28;20048;-60
2024/02/29 02:02:30;;;;;;;16.48;8.63;;;;;;;4.60;100.00;68900.03;5072473;28;20055;-60
2024/02/29 02:04:59;;;;;;;17.35;8.95;;;;;;;4.57;100.00;68895.13;5072473;28;20068;-61
2024/02/29 02:07:27;;;;;;;17.50;8.98;;;;;;;4.60;100.00;68894.88;5072593;28;20491;-60
2024/02/29 02:09:56;;;;;;;15.38;8.63;;;;;;;4.66;100.00;68907.00;5073445;28;20492;-60
2024/02/29 02:12:26;;;;;;;17.50;8.93;;;;;;;4.71;100.00;68910.78;5073610;28;20040;-61
2024/02/29 02:14:54;;;;;;;17.42;8.55;;;;;;;4.66;100.00;68901.81;5072051;28;20123;-60
2024/02/29 02:17:22;;;;;;;17.02;9.07;;;;;;;4.68;100.00;68907.31;5072579;28;20040;-60
2024/02/29 02:19:53;;;;;;;16.77;8.90;;;;;;;4.72;100.00;68911.38;5072229;28;20048;-60
2024/02/29 02:22:26;;;;;;;16.50;8.27;;;;;;;4.68;100.00;68904.72;5072059;28;20044;-60
2024/02/29 02:24:54;;;;;;;17.20;8.77;;;;;;;4.72;100.00;68913.97;5071128;28;20044;-61
2024/02/29 02:27:23;;;;;;;19.15;8.90;;;;;;;4.69;100.00;68905.91;5072212;28;20380;-60
2024/02/29 02:29:51;;;;;;;17.95;8.50;;;;;;;4.71;100.00;68907.63;5071338;28;20040;-60
2024/02/29 02:32:19;;;;;;;16.33;8.70;;;;;;;4.69;100.00;68902.72;5071434;28;20056;-61
2024/02/29 02:34:47;;;;;;;14.98;9.18;;;;;;;4.67;100.00;68903.00;5070590;28;20139;-61
2024/02/29 02:37:15;;;;;;;17.17;9.43;;;;;;;4.65;100.00;68898.66;5073218;28;20476;-61
2024/02/29 02:39:45;;;;;;;16.02;9.07;;;;;;;4.66;100.00;68907.00;5072028;28;20053;-61
2024/02/29 02:42:13;;;;;;;16.40;8.50;;;;;;;4.66;100.00;68901.81;5073146;28;20098;-61
2024/02/29 02:44:41;;;;;;;17.85;9.13;;;;;;;4.69;100.00;68905.31;5071312;28;20109;-49
2024/02/29 02:47:10;;;;;;;19.83;9.35;;;;;;;4.69;100.00;68907.88;5068847;28;20401;-52
2024/02/29 02:49:39;;;;;;;17.05;9.32;;;;;;;4.66;100.00;68902.41;5069837;28;20068;-51
2024/02/29 02:52:08;;;;;;;16.48;8.95;;;;;;;4.68;100.00;68904.72;5067527;28;20369;-52
2024/02/29 02:54:36;;;;;;;16.15;9.20;;;;;;;4.71;100.00;68907.63;5069542;28;20052;-52
2024/02/29 02:57:06;;;;;;;16.85;8.77;;;;;;;4.73;100.00;68912.53;5069018;28;20040;-52
2024/02/29 02:59:34;;;;;;;15.05;8.70;;;;;;;4.71;100.00;68910.78;5067738;28;20059;-49
2024/02/29 03:02:02;;;;;;;14.55;8.05;;;;;;;4.70;100.00;68912.22;5067515;28;20090;-51
2024/02/29 03:04:31;;;;;;;17.30;9.02;;;;;;;4.76;100.00;68915.44;5072356;28;20040;-50
2024/02/29 03:06:59;;;;;;;16.98;9.35;;;;;;;4.70;100.00;68907.06;5071376;28;20151;-51
2024/02/29 03:09:27;;;;;;;17.25;9.13;;;;;;;4.70;100.00;68907.06;5069453;28;20037;-49
2024/02/29 03:11:55;;;;;;;16.52;9.32;;;;;;;4.71;100.00;68912.81;5070687;28;20052;-49
2024/02/29 03:14:24;;;;;;;17.08;9.00;;;;;;;4.71;100.00;68908.22;5072439;28;20119;-47
2024/02/29 03:16:53;;;;;;;19.05;9.65;;;;;;;4.72;100.00;68908.81;5067817;28;20098;-48
2024/02/29 03:19:21;;;;;;;18.08;9.02;;;;;;;4.75;100.00;68909.69;5069041;28;20136;-48
2024/02/29 03:21:52;;;;;;;18.23;8.95;;;;;;;4.74;100.00;68911.09;5068061;28;20052;-49
2024/02/29 03:24:21;;;;;;;17.25;9.15;;;;;;;4.72;100.00;68911.38;5068267;28;20495;-49
2024/02/29 03:26:49;;;;;;;16.30;9.32;;;;;;;4.74;100.00;68911.72;5067168;28;20408;-51
2024/02/29 03:29:17;;;;;;;17.15;9.07;;;;;;;4.83;100.00;68918.97;5067601;28;20396;-53
2024/02/29 03:31:48;;;;;;;15.93;8.90;;;;;;;4.80;100.00;68915.50;5071634;28;20938;-50
2024/02/29 03:34:16;;;;;;;16.17;8.68;;;;;;;4.85;100.00;68923.31;5068741;28;20102;-50
2024/02/29 03:36:45;;;;;;;18.30;9.25;;;;;;;4.82;100.00;68923.00;5068899;28;20118;-48
2024/02/29 03:39:13;;;;;;;20.42;10.25;;;;;;;4.88;100.00;68924.78;5068278;28;20868;-51
2024/02/29 03:41:41;;;;;;;16.42;9.32;;;;;;;4.85;100.00;68929.06;5068258;28;20045;-50
2024/02/29 03:44:09;;;;;;;18.92;9.20;;;;;;;4.86;100.00;68927.63;5067597;28;20074;-51
2024/02/29 03:46:40;;;;;;;17.70;9.90;;;;;;;4.88;100.00;68929.38;5071601;28;20041;-47
2024/02/29 03:49:09;;;;;;;16.10;9.13;;;;;;;4.89;100.00;68935.72;5067508;28;20475;-50
2024/02/29 03:51:38;;;;;;;17.88;9.95;;;;;;;4.91;100.00;68935.47;5070753;28;20048;-53
2024/02/29 03:54:10;;;;;;;17.88;10.38;;;;;;;4.94;100.00;68933.19;5069752;28;20138;-51
2024/02/29 03:56:38;;;;;;;17.33;9.77;;;;;;;4.94;100.00;68933.78;5068603;28;20068;-49
2024/02/29 03:59:09;;;;;;;19.75;10.30;;;;;;;4.99;100.00;68941.56;5070668;28;20128;-51
2024/02/29 04:01:37;;;;;;;17.70;10.07;;;;;;;4.96;100.00;68938.09;5068874;28;20155;-50
2024/02/29 04:04:06;;;;;;;18.42;9.52;;;;;;;4.97;100.00;68932.06;5068406;28;20051;-50
2024/02/29 04:06:35;;;;;;;18.00;9.68;;;;;;;5.02;100.00;68943.06;5068645;28;20139;-51
2024/02/29 04:09:03;;;;;;;19.08;9.68;;;;;;;5.01;100.00;68938.75;5071112;28;20052;-50
2024/02/29 04:11:32;;;;;;;20.25;10.57;;;;;;;5.00;100.00;68938.16;5071896;28;20051;-52
2024/02/29 04:14:00;;;;;;;17.90;9.55;;;;;;;4.99;100.00;68939.59;5070369;28;20074;-54
2024/02/29 04:16:28;;;;;;;16.90;9.93;;;;;;;5.01;100.00;68938.75;5068725;28;20036;-49
2024/02/29 04:18:56;;;;;;;16.08;9.70;;;;;;;5.00;100.00;68942.75;5069120;28;20086;-51
2024/02/29 04:21:24;;;;;;;17.55;9.48;;;;;;;4.98;100.00;68940.44;5071604;28;20496;-51
2024/02/29 04:23:54;;;;;;;19.20;10.48;;;;;;;5.00;100.00;68937.56;5071498;28;20053;-49
2024/02/29 04:26:24;;;;;;;19.10;10.88;;;;;;;4.99;100.00;68939.00;5069854;28;20048;-50
2024/02/29 04:28:52;;;;;;;22.63;9.60;;;;;;;4.97;100.00;68937.25;5066742;28;20049;-52
2024/02/29 04:31:20;;;;;;;16.13;9.30;;;;;;;4.99;100.00;68939.00;5070492;28;20047;-52
2024/02/29 04:33:51;;;;;;;17.23;9.55;;;;;;;4.98;100.00;68937.84;5069192;28;20072;-53
2024/02/29 04:36:20;;;;;;;19.55;10.05;;;;;;;5.02;100.00;68947.66;5068535;28;20048;-53
2024/02/29 04:38:51;;;;;;;24.40;10.13;;;;;;;5.00;100.00;68940.72;5067648;28;20040;-49
2024/02/29 04:41:20;;;;;;;16.75;10.18;;;;;;;4.97;100.00;68937.25;5067535;28;20048;-48
2024/02/29 04:43:48;;;;;;;18.52;10.18;;;;;;;5.01;100.00;68941.31;5066716;28;20044;-49
2024/02/29 04:46:17;;;;;;;17.50;9.23;;;;;;;5.00;100.00;68940.72;5068217;28;20055;-48
2024/02/29 04:48:45;;;;;;;19.55;10.40;;;;;;;4.99;100.00;68942.16;5070974;28;20511;-48
2024/02/29 04:51:13;;;;;;;19.30;9.55;;;;;;;4.99;100.00;68944.16;5074003;28;20075;-49
2024/02/29 04:53:41;;;;;;;16.90;9.00;;;;;;;4.98;100.00;68937.84;5071238;28;20110;-51
2024/02/29 04:56:10;;;;;;;17.05;9.98;;;;;;;5.02;100.00;68945.06;5071006;28;20055;-51
2024/02/29 04:58:40;;;;;;;17.88;9.25;;;;;;;4.96;100.00;68935.50;5070218;28;20070;-51
2024/02/29 05:01:08;;;;;;;20.15;10.75;;;;;;;4.98;100.00;68941.00;5071052;28;20056;-50
2024/02/29 05:03:37;;;;;;;17.65;10.07;;;;;;;4.98;100.00;68935.25;5071944;28;20055;-48
2024/02/29 05:06:07;;;;;;;18.02;10.50;;;;;;;5.00;100.00;68942.75;5070982;28;20131;-51
2024/02/29 05:08:38;;;;;;;18.88;10.70;;;;;;;4.99;100.00;68944.16;5071373;28;20110;-51
2024/02/29 05:11:09;;;;;;;16.77;9.20;;;;;;;4.98;100.00;68932.66;5073823;28;20128;-49
2024/02/29 05:13:37;;;;;;;16.15;10.25;;;;;;;4.97;100.00;68939.84;5074371;28;20048;-52
2024/02/29 05:16:07;;;;;;;17.15;9.50;;;;;;;4.96;100.00;68935.50;5070622;28;20049;-50
2024/02/29 05:18:35;;;;;;;18.38;9.35;;;;;;;4.99;100.00;68944.75;5072239;28;20044;-52
2024/02/29 05:21:03;;;;;;;17.27;9.85;;;;;;;5.00;100.00;68940.16;5072980;28;20389;-50
2024/02/29 05:23:33;;;;;;;16.98;9.85;;;;;;;4.98;100.00;68938.41;5074520;28;20067;-52
2024/02/29 05:26:02;;;;;;;16.45;10.02;;;;;;;5.02;100.00;68942.50;5074221;28;20045;-52
2024/02/29 05:28:33;;;;;;;22.60;10.47;;;;;;;5.04;100.00;68945.38;5069977;28;20055;-51
2024/02/29 05:31:01;;;;;;;19.13;10.30;;;;;;;5.05;100.00;68945.97;5070338;28;20483;-49
2024/02/29 05:33:31;;;;;;;20.10;11.00;;;;;;;5.05;100.00;68951.72;5074352;28;20403;-49
2024/02/29 05:35:59;;;;;;;19.77;10.52;;;;;;;5.04;100.00;68944.81;5070814;28;20060;-49
2024/02/29 05:38:27;;;;;;;18.70;9.77;;;;;;;5.00;100.00;68940.72;5070766;28;20391;-50
2024/02/29 05:40:57;;;;;;;18.30;10.18;;;;;;;4.99;100.00;68936.41;5071207;28;20040;-50
2024/02/29 05:43:26;;;;;;;19.25;10.35;;;;;;;4.99;100.00;68942.16;5074410;28;20130;-51
2024/02/29 05:45:54;;;;;;;19.42;10.80;;;;;;;5.00;100.00;68943.31;5072664;28;20044;-52
2024/02/29 05:48:22;;;;;;;18.95;11.00;;;;;;;4.97;100.00;68937.25;5071291;28;20102;-51
2024/02/29 05:50:52;;;;;;;22.88;11.30;;;;;;;4.94;100.00;68933.19;5072784;28;20040;-53
2024/02/29 05:53:20;;;;;;;21.52;11.57;;;;;;;4.97;100.00;68934.09;5073933;28;20488;-49
2024/02/29 05:55:48;;;;;;;21.15;10.43;;;;;;;4.97;100.00;68939.25;5073459;28;20064;-53
2024/02/29 05:58:18;;;;;;;20.83;10.82;;;;;;;4.99;100.00;68937.00;5069433;28;20109;-50
2024/02/29 06:00:46;;;;;;;19.75;10.93;;;;;;;4.93;100.00;68935.19;5068784;28;20484;-52
2024/02/29 06:03:14;;;;;;;19.05;10.38;;;;;;;4.97;100.00;68939.25;5071760;28;20551;-53
2024/02/29 06:05:43;;;;;;;17.42;10.23;;;;;;;4.97;100.00;68934.09;5070305;28;20101;-52
2024/02/29 06:08:12;;;;;;;19.60;11.02;;;;;;;4.98;100.00;68937.84;5070427;28;20495;-54
2024/02/29 06:10:46;;;;;;;17.25;10.02;;;;;;;4.98;100.00;68943.00;5073326;28;20129;-51
2024/02/29 06:13:15;;;;;;;19.23;10.40;;;;;;;4.98;100.00;68941.00;5073367;28;20052;-49
2024/02/29 06:15:44;;;;;;;17.23;10.07;;;;;;;5.01;100.00;68941.31;5073005;28;20040;-50
2024/02/29 06:18:13;;;;;;;22.38;11.05;;;;;;;5.02;100.00;68943.06;5073517;28;20098;-48
2024/02/29 06:20:41;;;;;;;19.10;10.27;;;;;;;5.04;100.00;68944.81;5072443;28;20056;-49
2024/02/29 06:23:09;;;;;;;22.05;11.27;;;;;;;5.05;100.00;68943.38;5069044;28;20052;-51
2024/02/29 06:25:40;;;;;;;19.08;10.23;;;;;;;5.07;100.00;68948.88;5068374;28;20056;-51
2024/02/29 06:28:08;;;;;;;19.08;10.68;;;;;;;5.06;100.00;68952.88;5068089;28;20044;-50
2024/02/29 06:30:36;;;;;;;18.92;9.95;;;;;;;5.16;100.00;68955.59;5070023;28;20210;-51
2024/02/29 06:33:05;;;;;;;19.23;9.23;;;;;;;5.18;100.00;68961.06;5069429;28;20047;-48
2024/02/29 06:35:35;;;;;;;19.38;9.43;;;;;;;5.15;100.00;68955.00;5069970;28;20043;-50
2024/02/29 06:38:03;;;;;;;18.10;10.13;;;;;;;5.18;100.00;68960.47;5068758;28;20044;-51
2024/02/29 06:40:34;;;;;;;17.45;9.77;;;;;;;5.18;100.00;68961.06;5069505;28;20045;-48
2024/02/29 06:43:03;;;;;;;19.83;9.88;;;;;;;5.22;100.00;68960.56;5067407;28;20052;-47
2024/02/29 06:45:32;;;;;;;16.98;9.25;;;;;;;5.24;100.00;68968.03;5069341;28;20511;-51
2024/02/29 06:48:00;;;;;;;18.05;9.80;;;;;;;5.22;100.00;68962.53;5068833;28;20187;-49
2024/02/29 06:50:28;;;;;;;17.30;10.27;;;;;;;5.23;100.00;68961.69;5071067;28;20063;-50
2024/02/29 06:52:59;;;;;;;19.42;9.35;;;;;;;5.23;100.00;68966.88;5072777;28;20522;-51
2024/02/29 06:55:27;;;;;;;16.33;9.38;;;;;;;5.27;100.00;68970.38;5069869;28;20128;-50
2024/02/29 06:57:56;;;;;;;15.98;9.20;;;;;;;5.28;100.00;68976.72;5067989;28;20041;-48
2024/02/29 07:00:27;;;;;;;18.30;9.77;;;;;;;5.29;100.00;68975.28;5069653;28;20055;-51
2024/02/29 07:02:55;;;;;;;16.77;9.93;;;;;;;5.33;100.00;68979.91;5072703;28;20048;-50
2024/02/29 07:05:24;;;;;;;19.65;9.55;;;;;;;5.30;100.00;68977.00;5070896;28;20134;-50
2024/02/29 07:07:52;;;;;;;17.95;9.73;;;;;;;5.30;100.00;68973.84;5068316;28;20055;-49
2024/02/29 07:10:21;;;;;;;17.77;9.82;;;;;;;5.33;100.00;68977.34;5067479;28;20052;-49
2024/02/29 07:12:50;;;;;;;16.42;9.48;;;;;;;5.33;100.00;68977.34;5067925;28;20064;-49
2024/02/29 07:15:18;;;;;;;20.13;10.50;;;;;;;5.35;100.00;68977.66;5068609;28;20123;-51
2024/02/29 07:17:48;;;;;;;18.13;9.30;;;;;;;5.35;100.00;68979.66;5068682;28;20416;-51
2024/02/29 07:20:17;;;;;;;18.20;10.30;;;;;;;5.32;100.00;68971.00;5067715;28;20427;-51
2024/02/29 07:22:46;;;;;;;16.95;9.88;;;;;;;5.30;100.00;68974.44;5068306;28;20119;-51
2024/02/29 07:25:14;;;;;;;19.73;10.43;;;;;;;5.35;100.00;68982.25;5068999;28;20520;-52
2024/02/29 07:27:44;;;;;;;16.52;9.73;;;;;;;5.36;100.00;68986.00;5067818;28;20060;-52
2024/02/29 07:30:13;;;;;;;20.95;11.38;;;;;;;5.37;100.00;68982.56;5068835;28;20131;-53
2024/02/29 07:32:41;;;;;;;18.25;9.95;;;;;;;5.38;100.00;68988.91;5067463;28;20102;-52
2024/02/29 07:35:14;;;;;;;17.25;9.73;;;;;;;5.37;100.00;68981.97;5067486;28;20056;-54
2024/02/29 07:37:43;;;;;;;20.50;10.70;;;;;;;5.41;100.00;68989.81;5072435;28;20045;-50
2024/02/29 07:40:11;;;;;;;18.40;10.90;;;;;;;5.45;100.00;68990.72;5072005;28;20052;-51
2024/02/29 07:42:40;;;;;;;17.75;9.98;;;;;;;5.48;100.00;68994.78;5071965;28;20526;-52
2024/02/29 07:45:09;;;;;;;19.20;10.10;;;;;;;5.52;100.00;68999.44;5072072;28;20046;-52
2024/02/29 07:47:37;;;;;;;17.75;9.45;;;;;;;5.55;100.00;69005.50;5067935;28;20764;-54
2024/02/29 07:50:06;;;;;;;20.00;9.95;;;;;;;5.55;100.00;69002.91;5068975;28;20048;-48
2024/02/29 07:52:37;;;;;;;16.35;9.10;;;;;;;5.61;100.00;69011.88;5070345;28;20049;-51
2024/02/29 07:55:06;;;;;;;17.08;10.23;;;;;;;5.64;100.00;69009.63;5067836;28;20075;-48
2024/02/29 07:57:34;;;;;;;16.88;9.75;;;;;;;5.66;100.00;69017.13;5070652;28;20051;-50
2024/02/29 08:00:04;;;;;;;22.35;10.35;;;;;;;5.68;100.00;69014.84;5071871;28;20052;-50
2024/02/29 08:02:32;;;;;;;20.60;10.55;;;;;;;5.68;100.00;69022.03;5068791;28;20060;-49
2024/02/29 08:05:00;;;;;;;18.42;10.40;;;;;;;5.70;100.00;69019.19;5068471;28;20045;-49
2024/02/29 08:07:28;;;;;;;16.90;10.35;;;;;;;5.76;100.00;69028.75;5068540;28;20087;-51
2024/02/29 08:09:58;;;;;;;18.00;10.20;;;;;;;5.74;100.00;69024.41;5066983;28;20496;-52
2024/02/29 08:12:26;;;;;;;18.80;10.45;;;;;;;5.75;100.00;69025.59;5069218;28;20052;-49
2024/02/29 08:14:55;;;;;;;20.88;9.50;;;;;;;5.73;100.00;69022.69;5071906;28;20422;-52
2024/02/29 08:17:26;;;;;;;17.90;9.20;;;;;;;5.78;100.00;69028.50;5071715;28;20048;-51
2024/02/29 08:19:55;;;;;;;18.17;9.75;;;;;;;5.73;100.00;69020.66;5069760;28;20051;-53
2024/02/29 08:22:23;;;;;;;18.75;9.77;;;;;;;5.81;100.00;69034.56;5070473;28;20072;-52
2024/02/29 08:24:52;;;;;;;16.75;8.93;;;;;;;5.80;100.00;69028.22;5071606;28;20486;-51
2024/02/29 08:27:22;;;;;;;16.77;9.00;;;;;;;5.81;100.00;69033.97;5074934;28;20462;-52
2024/02/29 08:29:50;;;;;;;18.10;9.77;;;;;;;5.84;100.00;69035.47;5073934;28;20408;-61
2024/02/29 08:32:18;;;;;;;19.48;9.65;;;;;;;5.84;100.00;69035.47;5073258;28;20076;-60
2024/02/29 08:34:46;;;;;;;17.73;8.50;;;;;;;5.87;100.00;69035.78;5074312;28;20040;-52
2024/02/29 08:37:18;;;;;;;18.17;9.75;;;;;;;5.87;100.00;69038.94;5071379;28;20045;-51
2024/02/29 08:39:48;;;;;;;16.10;8.95;;;;;;;5.92;100.00;69044.75;5071470;28;20565;-51
2024/02/29 08:42:17;;;;;;;18.55;9.10;;;;;;;5.99;100.00;69054.34;5074335;28;20086;-52
2024/02/29 08:44:50;;;;;;;18.15;9.57;;;;;;;6.02;100.00;69055.25;5069962;28;20048;-53
2024/02/29 08:47:18;;;;;;;15.38;8.55;;;;;;;6.04;100.00;69057.56;5071742;28;20154;-50
2024/02/29 08:49:46;;;;;;;16.10;8.93;;;;;;;6.05;100.00;69058.72;5074071;28;20049;-50
2024/02/29 08:52:14;;;;;;;15.15;9.32;;;;;;;6.09;100.00;69061.38;5075034;28;20041;-50
2024/02/29 08:54:42;;;;;;;15.25;8.85;;;;;;;6.12;100.00;69068.88;5074859;28;20047;-54
2024/02/29 08:57:11;;;;;;;15.82;9.52;;;;;;;6.17;100.00;69072.69;5072202;28;20584;-51
2024/02/29 08:59:42;;;;;;;15.10;9.07;;;;;;;6.18;100.00;69073.28;5070333;28;20048;-52
2024/02/29 09:02:12;;;;;;;15.52;8.88;;;;;;;6.21;100.00;69079.94;5071444;28;20115;-52
2024/02/29 09:04:41;;;;;;;16.45;8.55;;;;;;;6.25;100.00;69084.00;5074330;28;20036;-52
2024/02/29 09:07:09;;;;;;;16.25;9.27;;;;;;;6.28;100.00;69084.91;5073750;28;20557;-52
2024/02/29 09:09:41;;;;;;;15.75;8.70;;;;;;;6.29;100.00;69085.50;5071260;28;20075;-51
2024/02/29 09:12:12;;;;;;;15.15;8.60;;;;;;;6.38;100.00;69098.53;5072501;28;20041;-53
2024/02/29 09:14:40;;;;;;;15.50;8.80;;;;;;;6.41;100.00;69099.44;5074597;28;20041;-51
2024/02/29 09:17:08;;;;;;;15.15;9.65;;;;;;;6.44;100.00;69102.94;5074600;28;20036;-49
2024/02/29 09:19:37;;;;;;;15.57;9.50;;;;;;;6.47;100.00;69103.81;5074605;28;20075;-51
2024/02/29 09:22:06;;;;;;;17.23;9.20;;;;;;;6.52;100.00;69114.84;5069863;28;20045;-54
2024/02/29 09:24:34;;;;;;;17.02;9.00;;;;;;;6.55;100.00;69117.75;5071235;28;20108;-50
2024/02/29 09:27:03;;;;;;;16.45;9.15;;;;;;;6.60;100.00;69124.13;5072875;28;20050;-53
2024/02/29 09:29:32;;;;;;;16.52;9.10;;;;;;;6.62;100.00;69128.47;5074531;28;20041;-49
2024/02/29 09:32:03;;;;;;;18.02;10.25;;;;;;;6.68;100.00;69124.50;5073518;28;20045;-52
2024/02/29 09:34:34;;;;;;;16.48;9.68;;;;;;;6.72;100.00;69134.94;5071607;28;20555;-53
2024/02/29 09:37:08;;;;;;;18.50;10.32;;;;;;;6.74;100.00;69134.09;5072150;28;20051;-62
2024/02/29 09:39:36;;;;;;;17.80;10.13;;;;;;;6.77;100.00;69140.16;5072760;28;20097;-60
2024/02/29 09:42:05;;;;;;;14.80;9.02;;;;;;;6.80;100.00;69146.25;5070403;28;20407;-61
2024/02/29 09:44:43;;;;;;;16.35;8.80;;;;;;;6.84;100.00;69150.31;5073388;28;20056;-62
2024/02/29 09:47:12;;;;;;;16.27;9.57;;;;;;;6.89;100.00;69154.13;5070772;28;20043;-62
2024/02/29 09:49:41;;;;;;;16.65;9.90;;;;;;;6.91;100.00;69153.88;5070598;28;20094;-61
2024/02/29 09:52:13;;;;;;;16.80;9.15;;;;;;;6.93;100.00;69163.97;5071553;28;20072;-61
2024/02/29 09:54:42;;;;;;;17.70;8.90;;;;;;;6.99;100.00;69164.59;5070512;28;20059;-60
2024/02/29 09:57:14;;;;;;;16.85;8.88;;;;;;;7.06;100.00;69172.75;5070901;28;20119;-61
2024/02/29 09:59:43;;;;;;;17.65;9.60;;;;;;;7.09;100.00;69179.41;5073968;28;20049;-61
2024/02/29 10:02:15;;;;;;;16.88;9.63;;;;;;;7.11;100.00;69181.72;5073840;28;20426;-60
2024/02/29 10:04:45;;;;;;;17.92;9.52;;;;;;;7.16;100.00;69183.78;5073522;28;20408;-61
2024/02/29 10:07:15;;;;;;;14.23;9.00;;;;;;;7.19;100.00;69184.69;5073220;28;20040;-61
2024/02/29 10:09:44;;;;;;;15.60;8.98;;;;;;;7.22;100.00;69190.78;5068591;28;20068;-61
2024/02/29 10:12:17;;;;;;;15.63;9.20;;;;;;;7.28;100.00;69195.75;5069771;28;20083;-61
2024/02/29 10:14:46;;;;;;;14.50;8.63;;;;;;;7.37;100.00;69207.66;5072382;28;20053;-62
2024/02/29 10:17:14;;;;;;;14.68;8.02;;;;;;;7.40;100.00;69211.16;5073409;28;20047;-61
2024/02/29 10:19:42;;;;;;;16.42;8.95;;;;;;;7.45;100.00;69217.56;5073446;28;20445;-62
2024/02/29 10:22:20;;;;;;;14.93;8.93;;;;;;;7.47;100.00;69219.28;5073407;28;20075;-62
2024/02/29 10:24:51;;;;;;;15.13;9.15;;;;;;;7.50;100.00;69222.22;5072125;28;20048;-61
2024/02/29 10:27:19;;;;;;;16.08;8.85;;;;;;;7.53;100.00;69226.28;5073259;28;20072;-61
2024/02/29 10:29:49;;;;;;;15.02;9.02;;;;;;;7.56;100.00;69227.19;5073295;28;20055;-62
2024/02/29 10:32:18;;;;;;;15.27;8.30;;;;;;;7.63;100.00;69234.75;5070674;28;20125;-60
2024/02/29 10:34:49;;;;;;;15.95;8.85;;;;;;;7.67;100.00;69241.44;5070555;28;20040;-62
2024/02/29 10:37:18;;;;;;;15.60;9.38;;;;;;;7.65;100.00;69236.50;5069498;28;20157;-62
2024/02/29 10:39:47;;;;;;;15.43;8.70;;;;;;;7.72;100.00;69247.25;5069845;28;20044;-61
2024/02/29 10:42:20;;;;;;;15.13;8.75;;;;;;;7.79;100.00;69255.41;5069487;28;20135;-61
2024/02/29 10:44:53;;;;;;;13.57;8.23;;;;;;;7.76;100.00;69254.50;5100886;28;20052;-62
2024/02/29 10:47:24;;;;;;;12.23;7.80;;;;;;;7.81;100.00;69259.75;5070085;28;20369;-61
2024/02/29 10:50:01;;;;;;;14.73;8.27;;;;;;;7.83;100.00;69260.06;5070830;28;20094;-62
2024/02/29 10:52:35;;;;;;;16.08;8.55;;;;;;;7.86;100.00;69263.53;5069641;28;20084;-62
2024/02/29 10:55:06;;;;;;;15.88;8.23;;;;;;;7.86;100.00;69258.34;5069304;28;20499;-61
2024/02/29 10:57:42;;;;;;;13.77;7.75;;;;;;;7.86;100.00;69260.94;5069230;28;20520;-61
2024/02/29 11:00:12;;;;;;;16.52;7.90;;;;;;;7.91;100.00;69271.97;5068979;28;20059;-61
2024/02/29 11:02:41;;;;;;;14.93;8.80;;;;;;;7.89;100.00;69267.03;5069393;28;20042;-61
2024/02/29 11:05:10;;;;;;;14.05;8.40;;;;;;;7.89;100.00;69269.63;5069478;28;20037;-62
2024/02/29 11:07:39;;;;;;;13.38;8.05;;;;;;;7.93;100.00;69273.72;5071744;28;20090;-62
2024/02/29 11:10:09;;;;;;;13.63;8.23;;;;;;;7.93;100.00;69271.72;5067839;28;20045;-62
2024/02/29 11:12:40;;;;;;;15.10;8.40;;;;;;;7.95;100.00;69274.03;5067732;28;20044;-60
2024/02/29 11:15:11;;;;;;;16.25;8.85;;;;;;;7.98;100.00;69276.94;5070031;28;20129;-62
2024/02/29 11:17:41;;;;;;;14.65;8.25;;;;;;;8.03;100.00;69282.19;5071819;28;20040;-62
2024/02/29 11:20:20;;;;;;;15.48;8.73;;;;;;;8.03;100.00;69280.19;5071395;28;20580;-61
2024/02/29 11:22:49;;;;;;;14.40;8.23;;;;;;;8.06;100.00;69286.25;5072187;28;20059;-62
2024/02/29 11:25:21;;;;;;;11.98;7.32;;;;;;;8.10;100.00;69287.75;5069538;28;20102;-62
2024/02/29 11:27:52;;;;;;;13.30;7.65;;;;;;;8.10;100.00;69290.34;5066329;28;20053;-61
2024/02/29 11:30:23;;;;;;;13.68;7.93;;;;;;;8.12;100.00;69292.66;5069412;28;20110;-62
2024/02/29 11:32:52;;;;;;;14.07;8.68;;;;;;;8.17;100.00;69300.53;5069247;28;20403;-62